Time;durP1;ratioP1;P1;durP2;ratioP2;P2;SDS_P1;SDS_P2;PMS_P1;PMS_P2;Temp;Humidity;BMP_temperature;BMP_pressure;BME280_temperature;BME280_humidity;BME280_pressure;Samples;Min_cycle;Max_cycle;Signal;HPM_P1;HPM_P2
2022/12/18 00:00:54;;;;;;;86.35;46.65;;;-3272.00;90.80;;;;;;4995446;28;20081;-79
2022/12/18 00:03:19;;;;;;;88.20;46.55;;;-3271.90;90.80;;;;;;4999600;28;20073;-79
2022/12/18 00:05:49;;;;;;;80.47;45.83;;;-3271.90;90.80;;;;;;5000934;28;20034;-79
2022/12/18 00:08:16;;;;;;;91.93;48.70;;;-3271.90;90.80;;;;;;5004843;28;20397;-79
2022/12/18 00:10:42;;;;;;;89.85;47.35;;;-3271.80;90.80;;;;;;5004097;28;20506;-77
2022/12/18 00:13:07;;;;;;;90.93;47.45;;;-3271.70;90.70;;;;;;4998213;28;20165;-78
2022/12/18 00:15:35;;;;;;;91.80;50.90;;;-3271.80;90.80;;;;;;5001053;28;20513;-78
2022/12/18 00:18:01;;;;;;;88.72;48.78;;;-3271.70;90.70;;;;;;4998676;28;20096;-78
2022/12/18 00:20:27;;;;;;;86.55;48.08;;;-3271.60;90.70;;;;;;5003909;28;22108;-78
2022/12/18 00:22:53;;;;;;;95.88;50.15;;;-3271.70;90.80;;;;;;5006249;28;20038;-79
2022/12/18 00:25:19;;;;;;;88.03;50.50;;;-3271.70;90.80;;;;;;4996693;28;20070;-79
2022/12/18 00:27:45;;;;;;;93.30;51.28;;;-3271.70;90.90;;;;;;4997051;28;20120;-81
2022/12/18 00:30:11;;;;;;;90.15;47.80;;;-3271.70;91.00;;;;;;4998314;28;20434;-78
2022/12/18 00:32:37;;;;;;;90.05;48.60;;;-3271.70;91.00;;;;;;4993074;28;20629;-78
2022/12/18 00:35:04;;;;;;;90.00;47.83;;;-3271.70;91.00;;;;;;4995386;28;20121;-78
2022/12/18 00:37:29;;;;;;;85.72;47.08;;;-3271.70;91.10;;;;;;4999367;28;20100;-78
2022/12/18 00:39:55;;;;;;;89.90;48.22;;;-3271.70;91.10;;;;;;4998427;28;20069;-79
2022/12/18 00:45:05;;;;;;;85.60;47.42;;;-3271.60;91.10;;;;;;4993357;28;20060;-80
2022/12/18 00:47:31;;;;;;;86.38;48.88;;;-3271.60;91.00;;;;;;4993497;28;20041;-77
2022/12/18 00:49:56;;;;;;;83.13;49.30;;;-3271.60;91.10;;;;;;4998706;28;20113;-79
2022/12/18 00:52:22;;;;;;;80.85;47.67;;;-3271.50;91.00;;;;;;4999668;28;20499;-78
2022/12/18 00:54:48;;;;;;;81.88;45.75;;;-3271.50;91.00;;;;;;4997413;28;20053;-77
2022/12/18 00:57:13;;;;;;;88.25;46.92;;;-3271.50;91.00;;;;;;4999528;28;20116;-79
2022/12/18 00:59:39;;;;;;;83.22;47.50;;;-3271.50;91.00;;;;;;5006616;28;20033;-77
2022/12/18 01:02:04;;;;;;;88.15;49.13;;;-3271.50;91.00;;;;;;5002119;28;20046;-79
2022/12/18 01:04:33;;;;;;;78.10;46.00;;;-3271.50;91.00;;;;;;5003159;28;20136;-78
2022/12/18 01:06:59;;;;;;;83.70;46.22;;;-3271.50;91.00;;;;;;5003385;28;20053;-79
2022/12/18 01:09:24;;;;;;;87.97;46.90;;;-3271.50;91.10;;;;;;4998205;28;20482;-78
2022/12/18 01:11:50;;;;;;;81.43;46.17;;;-3271.50;91.00;;;;;;5005405;28;20097;-77
2022/12/18 01:14:16;;;;;;;80.88;46.65;;;-3271.50;91.00;;;;;;4999087;28;20097;-76
2022/12/18 01:16:41;;;;;;;77.85;43.95;;;-3271.50;90.90;;;;;;5001411;28;20038;-79
2022/12/18 01:19:07;;;;;;;79.22;44.78;;;-3271.50;90.80;;;;;;4997047;28;20906;-78
2022/12/18 01:21:33;;;;;;;76.60;43.67;;;-3271.40;90.70;;;;;;4998719;28;20038;-76
2022/12/18 01:23:58;;;;;;;77.43;44.13;;;-3271.50;90.60;;;;;;5001369;28;20042;-78
2022/12/18 01:26:25;;;;;;;77.47;44.55;;;-3271.40;90.60;;;;;;5000391;28;20038;-78
2022/12/18 01:28:51;;;;;;;79.10;44.22;;;-3271.40;90.50;;;;;;5000782;28;20031;-80
2022/12/18 01:31:23;;;;;;;79.90;44.38;;;-3271.50;90.40;;;;;;5004265;28;20114;-81
2022/12/18 01:33:49;;;;;;;74.82;43.88;;;-3271.40;90.30;;;;;;4992340;28;20081;-78
2022/12/18 01:36:18;;;;;;;88.05;45.53;;;-3271.50;90.20;;;;;;5003726;28;20030;-79
2022/12/18 01:38:44;;;;;;;72.95;43.33;;;-3271.40;90.00;;;;;;4994024;28;20057;-79
2022/12/18 01:41:10;;;;;;;76.75;43.58;;;-3271.40;89.90;;;;;;4993099;28;20808;-77
2022/12/18 01:43:52;;;;;;;79.60;45.45;;;-3271.30;89.90;;;;;;4999279;28;20124;-79
2022/12/18 01:46:20;;;;;;;75.43;42.53;;;-3271.30;89.90;;;;;;4995637;28;20514;-79
2022/12/18 01:48:49;;;;;;;80.18;45.28;;;-3271.30;89.90;;;;;;5006475;28;20068;-81
2022/12/18 01:51:15;;;;;;;77.43;45.38;;;-3271.20;90.00;;;;;;4994180;28;20104;-77
2022/12/18 01:53:43;;;;;;;74.20;42.58;;;-3271.20;90.00;;;;;;5002576;28;20054;-77
2022/12/18 01:56:13;;;;;;;79.25;44.92;;;-3271.20;90.00;;;;;;4994924;28;20046;-78
2022/12/18 01:58:57;;;;;;;69.07;41.53;;;-3271.20;90.00;;;;;;5001616;28;20037;-77
2022/12/18 02:01:24;;;;;;;71.30;41.47;;;-3271.30;90.10;;;;;;4993877;28;20509;-80
2022/12/18 02:03:50;;;;;;;73.82;42.83;;;-3271.30;90.10;;;;;;5007658;28;20049;-80
2022/12/18 02:06:37;;;;;;;76.43;45.88;;;-3271.10;89.80;;;;;;5006220;28;20034;-77
2022/12/18 02:09:19;;;;;;;71.18;41.85;;;-3271.00;89.70;;;;;;5006293;28;20064;-77
2022/12/18 02:12:17;;;;;;;75.03;42.45;;;-3271.10;89.70;;;;;;5005493;28;20129;-77
2022/12/18 02:14:46;;;;;;;68.32;39.47;;;-3271.00;89.70;;;;;;4996125;28;20117;-77
2022/12/18 02:17:22;;;;;;;71.70;40.75;;;-3271.00;89.60;;;;;;5004314;28;20160;-81
2022/12/18 02:20:17;;;;;;;75.65;41.50;;;-3271.00;89.50;;;;;;4994030;28;20038;-82
2022/12/18 02:23:08;;;;;;;69.53;41.38;;;-3271.00;89.60;;;;;;4993595;28;20058;-81
2022/12/18 02:26:04;;;;;;;64.00;39.22;;;-3271.10;89.50;;;;;;4997015;28;20100;-77
2022/12/18 02:28:35;;;;;;;67.30;38.85;;;-3271.00;89.40;;;;;;4997428;28;20037;-78
2022/12/18 02:31:04;;;;;;;65.45;39.67;;;-3271.00;89.40;;;;;;5001406;28;20057;-78
2022/12/18 02:33:31;;;;;;;70.00;41.47;;;-3271.00;89.40;;;;;;5003857;28;20171;-79
2022/12/18 02:36:00;;;;;;;68.60;38.90;;;-3271.00;89.40;;;;;;4999171;28;20069;-78
2022/12/18 02:38:26;;;;;;;71.78;38.88;;;-3271.00;89.40;;;;;;5008319;28;20030;-77
2022/12/18 02:40:53;;;;;;;67.75;39.38;;;-3271.00;89.50;;;;;;5004989;28;20088;-78
2022/12/18 02:43:19;;;;;;;66.68;38.47;;;-3271.00;89.40;;;;;;4997219;28;20031;-78
2022/12/18 02:46:26;;;;;;;67.28;38.05;;;-3271.00;89.50;;;;;;5002328;28;20064;-79
2022/12/18 02:48:57;;;;;;;69.60;38.25;;;-3271.00;89.50;;;;;;4996950;28;20512;-83
2022/12/18 02:51:38;;;;;;;62.45;38.67;;;-3270.90;89.30;;;;;;4996980;28;20049;-80
2022/12/18 02:54:14;;;;;;;65.55;38.33;;;-3270.90;89.30;;;;;;4994147;28;20132;-81
2022/12/18 02:56:50;;;;;;;63.13;38.78;;;-3270.90;89.40;;;;;;4990749;28;20037;-79
2022/12/18 02:59:26;;;;;;;62.90;36.47;;;-3270.80;89.30;;;;;;5000187;28;20037;-79
2022/12/18 03:01:58;;;;;;;69.47;39.90;;;-3270.80;89.30;;;;;;5006310;28;20126;-78
2022/12/18 03:05:00;;;;;;;65.80;38.85;;;-3270.70;89.20;;;;;;5005792;28;20744;-78
2022/12/18 03:07:57;;;;;;;61.47;38.33;;;-3270.70;89.30;;;;;;4978640;28;20573;-79
2022/12/18 03:10:28;;;;;;;64.63;37.65;;;-3270.70;89.20;;;;;;5000819;28;20330;-79
2022/12/18 03:13:06;;;;;;;67.15;37.25;;;-3270.60;89.20;;;;;;5006332;28;20204;-79
2022/12/18 03:15:43;;;;;;;60.97;37.83;;;-3270.70;89.20;;;;;;5011394;28;20113;-80
2022/12/18 03:18:21;;;;;;;76.65;43.08;;;-3270.80;89.30;;;;;;5011049;28;20040;-77
2022/12/18 03:20:51;;;;;;;77.15;43.90;;;-3270.80;89.30;;;;;;5010104;28;20064;-77
2022/12/18 03:23:21;;;;;;;75.70;42.03;;;-3270.90;89.30;;;;;;5007371;28;20046;-78
2022/12/18 03:25:48;;;;;;;76.57;42.70;;;-3270.90;89.20;;;;;;5005742;28;20037;-79
2022/12/18 03:28:18;;;;;;;61.33;37.20;;;-3271.00;89.20;;;;;;5017213;28;20520;-82
2022/12/18 03:30:45;;;;;;;62.70;37.30;;;-3270.90;89.10;;;;;;5006894;28;20050;-78
2022/12/18 03:33:19;;;;;;;66.28;37.08;;;-3270.90;89.20;;;;;;5006476;28;20401;-78
2022/12/18 03:35:46;;;;;;;59.83;36.53;;;-3270.80;89.20;;;;;;5010704;28;20146;-79
2022/12/18 03:38:12;;;;;;;68.22;38.28;;;-3270.80;89.30;;;;;;5004218;28;20037;-78
2022/12/18 03:40:52;;;;;;;61.55;36.55;;;-3270.80;89.40;;;;;;5001390;28;20064;-77
2022/12/18 03:43:57;;;;;;;59.30;35.70;;;-3270.80;89.40;;;;;;5001191;28;20517;-78
2022/12/18 03:46:51;;;;;;;56.97;35.30;;;-3270.90;89.50;;;;;;5004342;28;20068;-83
2022/12/18 03:49:34;;;;;;;66.75;37.05;;;-3270.80;89.40;;;;;;5006417;28;20030;-78
2022/12/18 03:52:19;;;;;;;65.53;37.72;;;-3270.80;89.40;;;;;;5004983;28;20444;-82
2022/12/18 03:54:46;;;;;;;60.72;34.67;;;-3270.80;89.30;;;;;;4996827;28;20088;-81
2022/12/18 03:57:18;;;;;;;57.60;36.22;;;-3270.80;89.30;;;;;;5003282;28;20489;-78
2022/12/18 03:59:47;;;;;;;57.53;35.65;;;-3270.70;89.20;;;;;;5003861;28;20048;-81
2022/12/18 04:02:15;;;;;;;63.67;38.28;;;-3270.70;89.30;;;;;;5001360;28;20037;-78
2022/12/18 04:04:43;;;;;;;64.05;37.15;;;-3270.70;89.30;;;;;;5022348;28;20034;-79
2022/12/18 04:07:09;;;;;;;66.90;38.40;;;-3270.80;89.40;;;;;;5009217;28;20117;-77
2022/12/18 04:09:36;;;;;;;66.07;36.35;;;-3270.80;89.30;;;;;;4999437;28;20038;-78
2022/12/18 04:12:02;;;;;;;64.43;38.60;;;-3270.80;89.30;;;;;;4993651;28;20454;-79
2022/12/18 04:14:28;;;;;;;61.38;37.13;;;-3270.70;89.30;;;;;;5005322;28;20117;-77
2022/12/18 04:16:53;;;;;;;59.88;35.40;;;-3270.70;89.20;;;;;;5003361;28;20062;-77
2022/12/18 04:19:19;;;;;;;62.10;38.10;;;-3270.70;89.20;;;;;;5004137;28;20121;-78
2022/12/18 04:21:45;;;;;;;60.90;36.70;;;-3270.60;89.30;;;;;;4999169;28;20530;-78
2022/12/18 04:24:10;;;;;;;62.28;35.60;;;-3270.60;89.40;;;;;;4999327;28;20041;-79
2022/12/18 04:26:36;;;;;;;63.10;36.58;;;-3270.70;89.50;;;;;;4998924;28;20038;-78
2022/12/18 04:29:02;;;;;;;64.03;37.42;;;-3270.60;89.50;;;;;;4997400;28;20422;-77
2022/12/18 04:31:27;;;;;;;66.70;37.45;;;-3270.70;89.70;;;;;;4999770;28;20133;-81
2022/12/18 04:33:53;;;;;;;61.78;36.15;;;-3270.70;89.80;;;;;;5002648;28;20046;-79
2022/12/18 04:36:19;;;;;;;64.53;36.65;;;-3270.80;89.80;;;;;;5003741;28;20042;-80
2022/12/18 04:38:44;;;;;;;56.95;34.90;;;-3270.80;89.70;;;;;;4990128;28;20049;-78
2022/12/18 04:41:10;;;;;;;60.17;37.00;;;-3270.80;89.70;;;;;;5000642;28;20064;-79
2022/12/18 04:43:36;;;;;;;63.72;38.40;;;-3270.80;89.80;;;;;;5004301;28;20046;-83
2022/12/18 04:46:06;;;;;;;63.03;37.08;;;-3270.80;89.80;;;;;;5007775;28;20038;-77
2022/12/18 04:48:32;;;;;;;64.57;37.50;;;-3270.80;89.90;;;;;;4999207;28;20037;-79
2022/12/18 04:50:58;;;;;;;58.83;37.70;;;-3270.80;90.00;;;;;;5007041;28;20513;-83
2022/12/18 04:53:24;;;;;;;59.70;36.33;;;-3270.80;90.00;;;;;;5004787;28;20049;-79
2022/12/18 04:55:50;;;;;;;62.20;36.25;;;-3270.80;90.00;;;;;;5004099;28;20042;-80
2022/12/18 04:58:15;;;;;;;64.45;36.92;;;-3270.80;89.90;;;;;;5005756;28;20031;-80
2022/12/18 05:00:41;;;;;;;62.17;35.95;;;-3270.80;90.00;;;;;;5002160;28;20092;-79
2022/12/18 05:03:07;;;;;;;59.22;35.95;;;-3270.70;89.90;;;;;;4998922;28;20042;-79
2022/12/18 05:05:34;;;;;;;62.35;36.28;;;-3270.80;90.00;;;;;;5005422;28;21508;-79
2022/12/18 05:08:00;;;;;;;60.78;34.08;;;-3270.80;90.10;;;;;;5003263;28;20638;-79
2022/12/18 05:10:26;;;;;;;62.63;34.80;;;-3270.80;90.10;;;;;;5003976;28;20030;-83
2022/12/18 05:12:57;;;;;;;58.70;35.65;;;-3270.70;90.10;;;;;;5000121;28;20050;-78
2022/12/18 05:15:26;;;;;;;55.90;34.63;;;-3270.70;90.10;;;;;;5010697;28;20065;-79
2022/12/18 05:17:51;;;;;;;61.22;36.35;;;-3270.70;90.10;;;;;;4999323;28;20030;-80
2022/12/18 05:20:18;;;;;;;60.58;34.50;;;-3270.70;90.00;;;;;;5004285;28;20053;-78
2022/12/18 05:22:43;;;;;;;63.72;36.85;;;-3270.70;90.00;;;;;;5004751;28;20046;-82
2022/12/18 05:25:09;;;;;;;59.17;35.78;;;-3270.70;89.90;;;;;;4997790;28;20049;-81
2022/12/18 05:27:35;;;;;;;53.90;33.97;;;-3270.60;89.90;;;;;;5010144;28;20029;-79
2022/12/18 05:30:00;;;;;;;57.55;32.88;;;-3270.70;89.90;;;;;;5004026;28;20092;-80
2022/12/18 05:32:26;;;;;;;61.47;34.88;;;-3270.70;89.80;;;;;;5000915;28;20041;-79
2022/12/18 05:34:52;;;;;;;62.40;37.28;;;-3270.60;89.80;;;;;;4997658;28;20482;-77
2022/12/18 05:37:17;;;;;;;55.05;34.75;;;-3270.70;89.80;;;;;;4997646;28;20437;-81
2022/12/18 05:39:43;;;;;;;61.35;36.05;;;-3270.60;89.70;;;;;;4994339;28;20038;-78
2022/12/18 05:42:09;;;;;;;57.08;35.30;;;-3270.60;89.70;;;;;;4996122;28;20444;-79
2022/12/18 05:44:35;;;;;;;58.58;35.42;;;-3270.60;89.60;;;;;;4998103;28;20030;-78
2022/12/18 05:47:00;;;;;;;54.08;34.60;;;-3270.60;89.60;;;;;;4996394;28;20558;-77
2022/12/18 05:49:26;;;;;;;54.10;34.58;;;-3270.60;89.70;;;;;;4991799;28;20034;-80
2022/12/18 05:51:52;;;;;;;64.95;37.00;;;-3270.60;89.60;;;;;;4998502;28;20111;-79
2022/12/18 05:54:17;;;;;;;61.67;37.42;;;-3270.60;89.50;;;;;;4999077;28;20081;-79
2022/12/18 05:56:43;;;;;;;62.47;37.90;;;-3270.60;89.50;;;;;;5002795;28;20041;-79
2022/12/18 05:59:09;;;;;;;66.93;42.92;;;-3270.60;89.40;;;;;;5004310;28;20069;-79
2022/12/18 06:01:35;;;;;;;67.97;39.90;;;-3270.60;89.30;;;;;;5004532;28;20025;-77
2022/12/18 06:04:01;;;;;;;64.60;39.65;;;-3270.60;89.30;;;;;;4998079;28;20084;-78
2022/12/18 06:06:28;;;;;;;58.08;35.25;;;-3270.60;89.30;;;;;;5001764;28;20034;-79
2022/12/18 06:08:54;;;;;;;54.78;33.72;;;-3270.50;89.20;;;;;;4998277;28;20049;-78
2022/12/18 06:11:26;;;;;;;56.15;33.20;;;-3270.50;89.10;;;;;;4998564;28;22253;-79
2022/12/18 06:13:55;;;;;;;60.08;34.13;;;-3270.60;89.10;;;;;;5005469;28;20080;-79
2022/12/18 06:16:21;;;;;;;58.60;33.55;;;-3270.60;89.00;;;;;;4995484;28;20045;-79
2022/12/18 06:18:47;;;;;;;52.97;32.17;;;-3270.60;89.00;;;;;;5005831;28;20033;-78
2022/12/18 06:21:13;;;;;;;54.60;34.25;;;-3270.60;88.80;;;;;;4999249;28;20045;-79
2022/12/18 06:23:38;;;;;;;59.67;35.08;;;-3270.60;88.80;;;;;;4994915;28;20053;-79
2022/12/18 06:26:09;;;;;;;64.25;36.70;;;-3270.60;88.80;;;;;;5014776;28;20425;-78
2022/12/18 06:28:35;;;;;;;67.25;37.20;;;-3270.60;88.80;;;;;;4998282;28;20541;-79
2022/12/18 06:31:03;;;;;;;55.00;34.97;;;-3270.60;88.80;;;;;;5007814;28;20033;-80
2022/12/18 06:33:29;;;;;;;54.25;32.40;;;-3270.60;88.80;;;;;;4995686;28;20099;-78
2022/12/18 06:36:00;;;;;;;50.10;32.80;;;-3270.60;88.80;;;;;;4995951;28;20474;-78
2022/12/18 06:38:25;;;;;;;56.70;34.70;;;-3270.60;88.90;;;;;;4978899;28;20073;-78
2022/12/18 06:40:51;;;;;;;55.60;34.88;;;-3270.60;88.80;;;;;;4988842;28;20054;-78
2022/12/18 06:43:16;;;;;;;59.25;34.63;;;-3270.50;88.70;;;;;;4985725;28;20351;-78
2022/12/18 06:45:42;;;;;;;55.80;33.47;;;-3270.50;88.80;;;;;;4986579;28;20077;-79
2022/12/18 06:48:07;;;;;;;56.40;33.05;;;-3270.50;88.80;;;;;;4977765;28;20034;-79
2022/12/18 06:50:33;;;;;;;57.90;35.25;;;-3270.50;88.80;;;;;;4982687;28;20049;-76
2022/12/18 06:52:59;;;;;;;58.10;34.90;;;-3270.50;88.90;;;;;;4985606;28;20467;-79
2022/12/18 06:55:25;;;;;;;55.33;34.35;;;-3270.50;88.80;;;;;;4983709;28;20058;-76
2022/12/18 06:57:51;;;;;;;53.92;35.13;;;-3270.50;88.70;;;;;;4985866;28;20042;-80
2022/12/18 07:00:17;;;;;;;58.50;36.60;;;-3270.50;88.60;;;;;;4990572;28;20402;-75
2022/12/18 07:02:43;;;;;;;57.40;36.75;;;-3270.50;88.60;;;;;;4998346;28;20041;-76
2022/12/18 07:05:08;;;;;;;59.83;39.65;;;-3270.50;88.50;;;;;;5007720;28;20038;-77
2022/12/18 07:07:35;;;;;;;69.03;46.13;;;-3270.40;88.60;;;;;;5006190;28;20036;-76
2022/12/18 07:10:00;;;;;;;65.93;42.58;;;-3270.40;88.70;;;;;;5006346;28;20087;-77
2022/12/18 07:12:29;;;;;;;64.72;40.47;;;-3270.40;88.60;;;;;;5007750;28;20041;-78
2022/12/18 07:14:55;;;;;;;63.53;37.55;;;-3270.40;88.50;;;;;;4992403;28;20046;-76
2022/12/18 07:17:21;;;;;;;59.35;37.72;;;-3270.30;88.50;;;;;;5001326;28;20121;-80
2022/12/18 07:19:46;;;;;;;65.65;39.25;;;-3270.40;88.50;;;;;;5000500;28;20428;-77
2022/12/18 07:22:12;;;;;;;80.40;46.25;;;-3270.30;88.50;;;;;;4996843;28;20471;-76
2022/12/18 07:24:38;;;;;;;64.65;36.50;;;-3270.30;88.50;;;;;;5006424;28;20026;-78
2022/12/18 07:27:03;;;;;;;51.10;33.25;;;-3270.30;88.60;;;;;;5003816;28;20034;-77
2022/12/18 07:29:29;;;;;;;57.13;33.85;;;-3270.30;88.50;;;;;;5001810;28;20037;-77
2022/12/18 07:31:55;;;;;;;68.57;36.95;;;-3270.30;88.50;;;;;;5001289;28;20399;-77
2022/12/18 07:34:20;;;;;;;70.25;39.33;;;-3270.40;88.50;;;;;;5001701;28;20050;-78
2022/12/18 07:36:46;;;;;;;96.97;49.92;;;-3270.40;88.60;;;;;;5003953;28;20489;-79
2022/12/18 07:39:12;;;;;;;96.25;49.90;;;-3270.40;88.50;;;;;;5003127;28;20069;-77
2022/12/18 07:41:37;;;;;;;91.10;48.60;;;-3270.40;88.50;;;;;;5000189;28;20040;-77
2022/12/18 07:44:03;;;;;;;87.97;45.38;;;-3270.50;88.50;;;;;;4998595;28;20045;-77
2022/12/18 07:46:29;;;;;;;66.88;39.65;;;-3270.50;88.50;;;;;;4997564;28;20037;-77
2022/12/18 07:48:54;;;;;;;51.15;32.72;;;-3270.50;88.50;;;;;;4993303;28;20422;-80
2022/12/18 07:51:20;;;;;;;51.67;34.45;;;-3270.60;88.50;;;;;;4998752;28;20121;-79
2022/12/18 07:53:46;;;;;;;49.80;33.92;;;-3270.50;88.30;;;;;;4994723;28;20471;-77
2022/12/18 07:56:13;;;;;;;51.58;32.70;;;-3270.50;88.30;;;;;;5000299;28;20056;-76
2022/12/18 07:58:38;;;;;;;51.47;32.78;;;-3270.50;88.30;;;;;;5001849;28;20038;-78
2022/12/18 08:01:06;;;;;;;57.65;33.85;;;-3270.60;88.30;;;;;;4996349;28;20038;-77
2022/12/18 08:03:32;;;;;;;62.50;36.42;;;-3270.60;88.30;;;;;;5001465;28;20095;-79
2022/12/18 08:06:06;;;;;;;59.42;36.13;;;-3270.60;88.20;;;;;;4998454;28;20042;-79
2022/12/18 08:08:32;;;;;;;93.95;49.72;;;-3270.60;88.20;;;;;;5001423;28;20121;-78
2022/12/18 08:10:58;;;;;;;91.25;48.50;;;-3270.70;88.30;;;;;;5001701;28;20050;-77
2022/12/18 08:13:24;;;;;;;91.03;45.97;;;-3270.80;88.20;;;;;;5001196;28;20050;-78
2022/12/18 08:16:02;;;;;;;134.95;57.10;;;-3270.90;88.20;;;;;;4997541;28;20368;-77
2022/12/18 08:18:29;;;;;;;115.18;50.33;;;-3271.00;88.00;;;;;;4996689;28;20109;-77
2022/12/18 08:20:55;;;;;;;74.35;40.55;;;-3271.00;87.90;;;;;;5003087;28;20026;-78
2022/12/18 08:23:21;;;;;;;58.80;34.20;;;-3271.10;87.80;;;;;;5003304;28;20038;-81
2022/12/18 08:25:47;;;;;;;56.75;32.72;;;-3271.20;87.70;;;;;;5001590;28;20041;-80
2022/12/18 08:28:13;;;;;;;71.22;35.03;;;-3271.30;87.60;;;;;;4998972;28;20083;-77
2022/12/18 08:30:39;;;;;;;79.47;42.38;;;-3271.30;87.70;;;;;;4998566;28;20042;-76
2022/12/18 08:33:05;;;;;;;64.50;38.70;;;-3271.40;87.70;;;;;;4996014;28;20034;-78
2022/12/18 08:35:34;;;;;;;63.95;39.80;;;-3271.60;87.70;;;;;;4990576;28;20052;-79
2022/12/18 08:37:59;;;;;;;55.33;34.10;;;-3271.70;87.70;;;;;;4991619;28;20066;-78
2022/12/18 08:40:25;;;;;;;47.42;30.08;;;-3271.80;87.80;;;;;;4988989;28;20053;-80
2022/12/18 08:45:35;;;;;;;44.55;27.83;;;-3272.10;87.80;;;;;;4991802;28;20041;-78
2022/12/18 08:48:01;;;;;;;42.75;24.98;;;-3272.20;87.70;;;;;;4993248;28;20038;-77
2022/12/18 08:50:26;;;;;;;40.95;24.20;;;-3272.30;87.80;;;;;;4995297;28;20058;-80
2022/12/18 08:52:52;;;;;;;38.75;23.95;;;-3272.40;87.80;;;;;;4996834;28;20586;-77
2022/12/18 08:55:18;;;;;;;34.50;22.88;;;-3272.60;87.90;;;;;;4986734;28;20042;-77
2022/12/18 08:57:47;;;;;;;35.50;21.13;;;-3272.70;87.90;;;;;;4992389;28;20811;-79
2022/12/18 09:00:13;;;;;;;33.08;20.90;;;-3272.80;88.00;;;;;;4993943;28;20047;-80
2022/12/18 09:02:39;;;;;;;32.78;21.20;;;-3273.00;88.00;;;;;;4991872;28;20034;-79
2022/12/18 09:05:05;;;;;;;28.17;19.73;;;-3273.10;88.00;;;;;;4993396;28;20033;-77
2022/12/18 09:07:30;;;;;;;31.25;20.05;;;-3273.30;87.70;;;;;;4992544;28;20037;-78
2022/12/18 09:09:56;;;;;;;30.48;18.45;;;-3273.40;87.40;;;;;;4991376;28;20034;-78
2022/12/18 09:12:22;;;;;;;37.53;22.17;;;-3273.50;87.20;;;;;;4996033;28;20038;-80
2022/12/18 09:14:47;;;;;;;28.30;19.63;;;-3273.50;86.90;;;;;;5001185;28;20121;-77
2022/12/18 09:17:13;;;;;;;33.22;18.35;;;-3273.60;86.60;;;;;;4989526;28;20034;-78
2022/12/18 09:19:39;;;;;;;31.00;18.40;;;-3273.70;86.20;;;;;;4995163;28;20030;-79
2022/12/18 09:22:05;;;;;;;31.90;20.13;;;-3273.80;85.90;;;;;;4990853;28;20030;-80
2022/12/18 09:24:30;;;;;;;28.13;18.05;;;-3273.90;85.70;;;;;;4993856;28;20040;-79
2022/12/18 09:26:56;;;;;;;28.80;18.55;;;-3274.00;85.50;;;;;;4992094;28;20062;-80
2022/12/18 09:29:22;;;;;;;30.65;18.02;;;-3274.00;85.40;;;;;;4993626;28;20375;-79
2022/12/18 09:31:49;;;;;;;29.92;18.98;;;-3274.10;85.20;;;;;;4992053;28;20046;-79
2022/12/18 09:34:15;;;;;;;29.65;18.17;;;-3274.10;85.10;;;;;;4997763;28;20064;-78
2022/12/18 09:36:40;;;;;;;30.33;18.17;;;-3274.20;85.00;;;;;;4992216;28;20042;-77
2022/12/18 09:39:06;;;;;;;29.10;18.60;;;-3274.20;84.90;;;;;;4993646;28;20056;-78
2022/12/18 09:41:44;;;;;;;39.65;27.25;;;-3274.30;84.80;;;;;;4998566;28;20478;-78
2022/12/18 09:44:26;;;;;;;35.67;22.00;;;-3274.40;84.70;;;;;;4993121;28;20643;-78
2022/12/18 09:47:04;;;;;;;33.15;19.75;;;-3274.40;84.50;;;;;;4992528;28;20565;-78
2022/12/18 09:49:33;;;;;;;30.38;18.77;;;-3274.50;84.40;;;;;;4988019;28;20034;-78
2022/12/18 09:52:09;;;;;;;28.02;17.88;;;-3274.40;84.50;;;;;;4986582;28;20049;-78
2022/12/18 09:55:10;;;;;;;29.42;17.75;;;-3274.50;84.50;;;;;;4993880;28;20041;-78
2022/12/18 09:57:40;;;;;;;29.38;18.35;;;-3274.50;84.50;;;;;;4989190;28;20113;-77
2022/12/18 10:00:17;;;;;;;30.63;19.83;;;-3274.60;84.40;;;;;;4998720;28;20095;-78
2022/12/18 10:02:43;;;;;;;31.33;19.85;;;-3274.60;84.30;;;;;;4997211;28;20479;-78
2022/12/18 10:05:15;;;;;;;31.17;18.98;;;-3274.70;84.40;;;;;;4993478;28;20096;-78
2022/12/18 10:07:47;;;;;;;30.30;19.17;;;-3274.70;84.00;;;;;;4987327;28;20049;-75
2022/12/18 10:10:27;;;;;;;29.00;20.23;;;-3274.80;84.00;;;;;;4988582;28;20038;-78
2022/12/18 10:13:33;;;;;;;33.55;20.90;;;-3274.80;84.00;;;;;;4997386;28;20084;-77
2022/12/18 10:16:05;;;;;;;27.95;17.80;;;-3274.80;83.60;;;;;;5002063;28;20130;-77
2022/12/18 10:18:48;;;;;;;29.45;18.70;;;-3274.90;83.50;;;;;;4994241;28;20045;-77
2022/12/18 10:21:31;;;;;;;27.60;18.00;;;-3275.00;83.50;;;;;;4999530;28;20445;-76
2022/12/18 10:24:00;;;;;;;30.27;20.23;;;-3275.00;83.50;;;;;;4995834;28;20042;-76
2022/12/18 10:26:26;;;;;;;35.50;22.75;;;-3275.00;83.40;;;;;;4993080;28;20039;-75
2022/12/18 10:28:54;;;;;;;42.42;27.25;;;-3275.00;83.30;;;;;;5000126;28;20084;-77
2022/12/18 10:31:22;;;;;;;30.58;21.48;;;-3275.10;83.10;;;;;;5003414;28;20042;-76
2022/12/18 10:33:48;;;;;;;33.00;22.63;;;-3275.10;82.90;;;;;;5006503;28;20056;-76
2022/12/18 10:36:18;;;;;;;32.05;20.85;;;-3275.10;83.00;;;;;;5012706;28;20093;-77
2022/12/18 10:38:43;;;;;;;30.52;18.92;;;-3275.20;83.10;;;;;;5001606;28;20039;-77
2022/12/18 10:41:23;;;;;;;30.08;19.92;;;-3275.20;82.90;;;;;;4992236;28;20038;-77
2022/12/18 10:44:08;;;;;;;30.63;20.77;;;-3275.30;82.80;;;;;;4993575;28;20431;-77
2022/12/18 10:46:34;;;;;;;29.40;18.50;;;-3275.40;82.40;;;;;;4997853;28;20092;-77
2022/12/18 10:49:00;;;;;;;28.42;20.02;;;-3275.40;82.20;;;;;;4999606;28;20038;-77
2022/12/18 10:51:37;;;;;;;33.33;20.42;;;-3275.40;82.10;;;;;;5001736;28;20038;-77
2022/12/18 10:54:23;;;;;;;31.73;20.95;;;-3275.40;81.80;;;;;;4997073;28;20042;-75
2022/12/18 10:56:49;;;;;;;29.88;19.67;;;-3275.50;81.40;;;;;;4998638;28;20061;-77
2022/12/18 10:59:17;;;;;;;33.60;20.80;;;-3275.50;81.10;;;;;;5008108;28;20053;-76
2022/12/18 11:01:54;;;;;;;36.30;23.60;;;-3275.50;81.10;;;;;;4998020;28;20034;-76
2022/12/18 11:04:30;;;;;;;32.58;20.75;;;-3275.50;80.50;;;;;;4995676;28;20034;-76
2022/12/18 11:07:05;;;;;;;34.33;21.77;;;-3275.50;80.20;;;;;;4996402;28;20371;-75
2022/12/18 11:09:39;;;;;;;32.05;21.08;;;-3275.50;80.40;;;;;;5001110;28;20030;-76
2022/12/18 11:12:16;;;;;;;31.83;20.52;;;-3275.50;80.20;;;;;;4996691;28;20054;-77
2022/12/18 11:14:46;;;;;;;32.00;21.25;;;-3275.50;80.20;;;;;;4999061;28;20050;-77
2022/12/18 11:17:28;;;;;;;35.20;21.85;;;-3275.50;80.20;;;;;;4996339;28;20057;-76
2022/12/18 11:19:58;;;;;;;36.00;22.73;;;-3275.50;79.80;;;;;;4999495;28;20516;-75
2022/12/18 11:22:27;;;;;;;35.55;22.17;;;-3275.60;79.80;;;;;;5000387;28;20033;-76
2022/12/18 11:25:17;;;;;;;33.83;22.08;;;-3275.60;79.80;;;;;;5005303;28;20548;-76
2022/12/18 11:27:52;;;;;;;33.58;21.60;;;-3275.60;80.10;;;;;;5003866;28;20108;-79
2022/12/18 11:30:20;;;;;;;35.13;22.77;;;-3275.70;80.00;;;;;;4999874;28;20423;-80
2022/12/18 11:33:01;;;;;;;31.42;21.27;;;-3275.70;80.20;;;;;;4997581;28;20049;-77
2022/12/18 11:35:53;;;;;;;34.20;22.40;;;-3275.70;80.30;;;;;;5000392;28;20035;-77
2022/12/18 11:38:25;;;;;;;36.38;22.98;;;-3275.80;80.30;;;;;;4999613;28;20042;-77
2022/12/18 11:41:06;;;;;;;36.45;22.95;;;-3275.80;80.10;;;;;;4988605;28;20034;-77
2022/12/18 11:43:45;;;;;;;33.13;22.65;;;-3275.90;80.20;;;;;;4992196;28;20390;-77
2022/12/18 11:46:33;;;;;;;37.47;23.65;;;-3275.90;80.00;;;;;;4993581;28;20192;-77
2022/12/18 11:49:07;;;;;;;36.20;24.00;;;-3275.80;80.00;;;;;;4998983;28;20062;-78
2022/12/18 11:51:43;;;;;;;35.10;23.17;;;-3276.00;80.10;;;;;;5004240;28;20046;-78
2022/12/18 11:54:14;;;;;;;38.65;24.77;;;-3276.00;79.60;;;;;;5003865;28;20174;-78
2022/12/18 11:56:56;;;;;;;39.83;22.85;;;-3276.00;79.80;;;;;;4995639;28;20038;-77
2022/12/18 11:59:48;;;;;;;39.70;23.95;;;-3276.10;79.50;;;;;;4992492;28;20098;-78
2022/12/18 12:02:41;;;;;;;35.78;23.67;;;-3276.10;79.70;;;;;;4994199;28;20042;-78
2022/12/18 12:05:12;;;;;;;37.55;25.00;;;-3276.20;79.50;;;;;;4994922;28;20041;-78
2022/12/18 12:08:09;;;;;;;37.22;24.98;;;-3276.20;79.30;;;;;;4995477;28;20062;-77
2022/12/18 12:10:38;;;;;;;35.22;24.80;;;-3276.30;79.10;;;;;;4991952;28;20064;-78
2022/12/18 12:13:12;;;;;;;39.08;24.30;;;-3276.20;79.10;;;;;;4990953;28;20057;-77
2022/12/18 12:15:52;;;;;;;39.00;24.95;;;-3276.20;79.30;;;;;;4994497;28;20392;-77
2022/12/18 12:18:33;;;;;;;35.92;23.83;;;-3276.30;79.20;;;;;;4992227;28;20030;-77